Tiempo atmosférico en la estación meteorológica de Villanueva Del Fresno, Badajoz (247 m.)



Fecha
DESCASC
Temp. máxima en grados centígrados (hora)
DESCASC
Temp. mínima en grados centígrados (hora)
DESCASC
Temp. media en grados centígrados
DESCASC
Racha de viento máxima en m/sg (hora)
DESCASC
Velocidad máxima media en intervalos de 10 minutos(hora)
DESCASC
Precipitaciones diarias en mm
DESCASC
Precipitaciones de 00:00 a 06:00 en mm
DESCASC
Precipitaciones de 06:00 a 12:00 en mm
DESCASC
Precipitaciones de 12:00 a 18:00 en mm
DESCASC
Precipitaciones de 18:00 a 24:00 en mm
DESCASC
16-04-2019 24 (17:40) 7.6 (07:50) 15.8 10.28 (17:00) 6.11 (18:20) 0 0 0 0 0
15-04-2019 20.4 (18:40) 11.7 (07:50) 16 10.28 (14:20) 7.22 (14:30) 0 0 0 0 0
14-04-2019 24 (16:30) 12.6 (00:00) 18.3 6.67 (16:00) 4.72 (16:00) 0 0 0 0 0
13-04-2019 22.6 (16:40) 8.4 (00:00) 15.5 7.5 (14:30) 5 (20:30) 0 0 0 0 0
12-04-2019 21.1 (16:30) 5.7 (00:00) 13.4 7.5 (16:30) 4.17 (14:40) 0 0 0 0 0
11-04-2019 19.9 (17:50) 5.7 (00:00) 12.8 7.22 (17:10) 4.72 (17:10) 0 0 0 0 0
10-04-2019 18.7 (18:10) 6 (00:00) 12.4 11.94 (16:00) 8.06 (16:00) 0 0 0 0 0
09-04-2019 15.9 (18:20) 8.1 (00:00) 12 12.78 (12:40) 8.33 (12:40) 0.8 0 0.2 0.6 0
08-04-2019 17.8 (16:10) 9.9 (00:00) 13.8 12.22 (18:50) 8.06 (18:50) 1.8 1.8 0 0 0
07-04-2019 14.3 (19:40) 8.2 (00:00) 11.3 8.61 (12:00) 5.56 (12:40) 0.8 0.2 0 0.4 0.2
06-04-2019 14.3 (14:20) 5.9 (00:00) 10.1 17.22 (15:00) 9.72 (15:00) 2.2 0 0.4 1.8 0
05-04-2019 12.5 (16:20) 5.3 (00:00) 8.9 18.89 (16:50) 10 (16:50) 7.4 4 2.6 0 0.8
04-04-2019 16.7 (17:00) 2.7 (00:00) 9.7 9.72 (18:50) 6.67 (19:50) 0.2 0 0 0 0.2
03-04-2019 18.1 (17:50) 6 (00:00) 12.1 10 (23:30) 5.83 (19:20) 0 0 0 0 0
02-04-2019 20.8 (16:50) 7.8 (00:00) 14.3 6.67 (17:40) 4.17 (18:10) 0.2 0.2 0 0 0
01-04-2019 19.6 (15:00) 10.4 (00:00) 15 10.83 (17:10) 5 (17:10) 4.4 1.2 0 0.6 2.6
31-03-2019 21.9 (17:40) 10.1 (00:00) 16 9.44 (18:20) 6.39 (18:50) 0.4 0 0.2 0 0.2
30-03-2019 23.2 (15:50) 11 (00:00) 17.1 10 (19:20) 6.39 (19:30) 3.2 0 0 0 3.2
29-03-2019 22.5 (17:00) 8.8 (00:00) 15.7 6.67 (03:00) 5.28 (03:00) 0 0 0 0 0
28-03-2019 21.7 (17:30) 6.8 (00:00) 14.3 10.83 (15:00) 6.67 (15:00) 0 0 0 0 0
27-03-2019 22.3 (16:50) 10.1 (00:00) 16.2 11.39 (15:00) 6.39 (16:30) 0 0 0 0 0
26-03-2019 25.4 (17:30) 11.9 (00:00) 18.6 12.5 (14:30) 7.22 (13:00) 0 0 0 0 0
25-03-2019 23.8 (16:40) 8.6 (00:00) 16.2 11.94 (14:50) 7.22 (16:20) 0 0 0 0 0
24-03-2019 21.5 (14:40) 9.2 (00:00) 15.3 22.5 (20:20) 6.11 (12:20) 2.4 0 0 0.2 2.2
23-03-2019 23 (15:10) 7.2 (00:00) 15.1 14.44 (12:10) 8.33 (12:00) 0 0 0 0 0
22-03-2019 20.6 (16:30) 5.3 (00:00) 13 9.72 (13:00) 6.11 (13:00) 0 0 0 0 0
21-03-2019 19.3 (16:30) 4.6 (00:00) 11.9 8.33 (14:10) 4.72 (16:20) 0 0 0 0 0
20-03-2019 17.8 (15:30) 7.9 (00:00) 12.8 10.28 (15:10) 6.11 (12:50) 0 0 0 0 0
19-03-2019 20.2 (15:10) 7 (00:00) 13.6 10 (15:50) 6.94 (16:10) 0 0 0 0 0

Gráficas

Temp. máximas Temp. mínimas Temp. medias Precipitaciones Rachas de viento máximas Velocidades máximas media en intervalos de 10 minutos

Datos horarios

Fecha y hora oficial Temperatura (ºC) Velocidad del viento (km/h) Dirección del viento Racha (km/h) Dirección de racha Precipitación (mm) Presión (hPa) Tendencia (hPa) Humedad (%)
2019-04-17 23:00:00 11 14 Sur 25 Sudoeste 0 -- -- 92
2019-04-17 22:00:00 11.5 15 Sudoeste 23 Sudoeste 0 -- -- 90
2019-04-17 21:00:00 11.6 13 Sudoeste 20 Sudoeste 0 -- -- 89
2019-04-17 20:00:00 11.8 14 Sur 21 Sudoeste 0 -- -- 89
2019-04-17 19:00:00 12.1 11 Sur 30 Sur 1 -- -- 88
2019-04-17 18:00:00 14.4 12 Sudoeste 21 Sur 0 -- -- 80
2019-04-17 17:00:00 13.4 11 Sudoeste 20 Oeste 0.2 -- -- 87
2019-04-17 16:00:00 12.5 15 Oeste 40 Oeste 0 -- -- 88
2019-04-17 15:00:00 15.1 22 Oeste 54 Sudoeste 0 -- -- 76
2019-04-17 14:00:00 18.4 33 Sudoeste 49 Sudoeste 0 -- -- 65
2019-04-17 13:00:00 18.7 31 Sur 48 Sudoeste 0 -- -- 64
2019-04-17 12:00:00 16.9 26 Sur 42 Sur 0 -- -- 71
2019-04-17 11:00:00 15.5 15 Sur 35 Sur 0 -- -- 75
2019-04-17 10:00:00 13.6 11 Sudeste 18 Sudeste 0 -- -- 75
2019-04-17 09:00:00 13.4 11 Sur 20 Sur 0 -- -- 75
2019-04-17 08:00:00 12.1 12 Sudeste 19 Sudeste 0 -- -- 77
2019-04-17 07:00:00 12.1 14 Sudeste 21 Sudeste 0 -- -- 75
2019-04-17 06:00:00 11.5 11 Sudeste 16 Sudeste 0 -- -- 76
2019-04-17 05:00:00 11.3 9 Sudeste 15 Sur 0 -- -- 75
2019-04-17 04:00:00 11.5 6 Sur 11 Sur 0 -- -- 70
2019-04-17 03:00:00 11.8 8 Sur 17 Sudoeste 0 -- -- 66
2019-04-17 02:00:00 13.2 13 Sudoeste 24 Sur 0 -- -- 61
2019-04-17 01:00:00 14.4 14 Sudoeste 22 Sur 0 -- -- 59
2019-04-17 00:00:00 15.3 14 Sudoeste 22 Sur 0 -- -- 54
2019-04-16 23:00:00 16 8 Sudoeste 13 Sudoeste 0 -- -- 47
2019-04-16 22:00:00 17.7 6 Sudoeste 15 Sudoeste 0 -- -- 46
2019-04-16 21:00:00 19.7 5 Sudoeste 21 Sudoeste 0 -- -- 39
2019-04-16 20:00:00 21.8 17 Sudoeste 28 Sudoeste 0 -- -- 37
2019-04-16 19:00:00 22.9 21 Sudoeste 34 Sudoeste 0 -- -- 36
2019-04-16 18:00:00 23.8 21 Sudoeste 32 Sudoeste 0 -- -- 34
2019-04-16 17:00:00 23.7 20 Sudoeste 37 Sudoeste 0 -- -- 33
2019-04-16 16:00:00 23.3 18 Sudoeste 32 Sudeste 0 -- -- 31
2019-04-16 15:00:00 22.5 8 Sudoeste 25 Sudoeste 0 -- -- 38
2019-04-16 14:00:00 21.3 14 Sudoeste 22 Sur 0 -- -- 40
2019-04-16 13:00:00 19.6 9 Sur 20 Sudeste 0 -- -- 48
2019-04-16 12:00:00 17.8 12 Sudoeste 21 Sur 0 -- -- 56
2019-04-16 11:00:00 16 13 Sudeste 20 Sudeste 0 -- -- 70
2019-04-16 10:00:00 12.8 5 Sudeste 10 Sudeste 0 -- -- 85
2019-04-16 09:00:00 9.7 4 Sudeste 8 Sudeste 0 -- -- 97
2019-04-16 08:00:00 7.8 2 Sudeste 6 Sudeste 0 -- -- 96
2019-04-16 07:00:00 7.7 3 Este 14 Este 0 -- -- 95
2019-04-16 06:00:00 8.6 4 Este 9 Sudeste 0 -- -- 95
2019-04-16 05:00:00 8.7 5 Sudeste 8 Sudeste 0 -- -- 95
2019-04-16 04:00:00 9.2 0 Calma 9 Nordeste 0 -- -- 93
2019-04-16 03:00:00 9.7 3 Nordeste 4 Este 0 -- -- 92
2019-04-16 02:00:00 10.6 2 Sur 4 Oeste 0 -- -- 89
2019-04-16 01:00:00 11.5 0 Calma 14 Noroeste 0 -- -- 86
2019-04-16 00:00:00 13.2 10 Noroeste 23 Noroeste 0 -- -- 81
2019-04-15 23:00:00 14.4 13 Noroeste 22 Noroeste 0 -- -- 75
2019-04-15 22:00:00 15.3 13 Noroeste 23 Noroeste 0 -- -- 67
2019-04-15 21:00:00 16.8 12 Noroeste 31 Noroeste 0 -- -- 56
2019-04-15 20:00:00 18.9 23 Noroeste 35 Noroeste 0 -- -- 49
2019-04-15 19:00:00 19.5 21 Noroeste 33 Noroeste 0 -- -- 53
2019-04-15 18:00:00 19.1 17 Oeste 31 Oeste 0 -- -- 58
2019-04-15 17:00:00 19.3 22 Oeste 37 Oeste 0 -- -- 59
2019-04-15 16:00:00 18.5 18 Noroeste 32 Noroeste 0 -- -- 63
2019-04-15 15:00:00 17.6 23 Noroeste 37 Oeste 0 -- -- 68
2019-04-15 14:00:00 19.1 21 Oeste 33 Oeste 0 -- -- 58
2019-04-15 13:00:00 18.5 21 Oeste 30 Oeste 0 -- -- 61
2019-04-15 12:00:00 16.8 16 Oeste 29 Oeste 0 -- -- 67
2019-04-15 11:00:00 15.3 17 Noroeste 24 Noroeste 0 -- -- 79
2019-04-15 10:00:00 14.2 7 Oeste 11 Oeste 0 -- -- 92
2019-04-15 09:00:00 12.6 3 Oeste 9 Oeste 0 -- -- 96
2019-04-15 08:00:00 11.8 3 Sudoeste 6 Sudoeste 0 -- -- 94
2019-04-15 07:00:00 12.4 3 Sudeste 6 Sudeste 0 -- -- 93
2019-04-15 06:00:00 12.7 3 Sudeste 7 Este 0 -- -- 92
2019-04-15 05:00:00 13 0 Calma 2 Nordeste 0 -- -- 90
2019-04-15 04:00:00 13.6 0 Calma 3 Noroeste 0 -- -- 86
2019-04-15 03:00:00 14.7 2 Sur 10 Oeste 0 -- -- 81
2019-04-15 02:00:00 16.3 5 Sur 10 Sudoeste 0 -- -- 75
2019-04-15 01:00:00 17.9 5 Sur 10 Sur 0 -- -- 68
2019-04-15 00:00:00 18.4 4 Sur 9 Sur 0 -- -- 71
2019-04-14 23:00:00 18.7 4 Sudeste 6 Sudeste 0 -- -- 70
2019-04-14 22:00:00 19.6 0 Calma 3 Noroeste 0 -- -- 68
2019-04-14 21:00:00 21.4 3 Norte 8 Oeste 0 -- -- 61
2019-04-14 20:00:00 22.3 6 Noroeste 14 Oeste 0 -- -- 57
2019-04-14 19:00:00 23.6 11 Oeste 16 Oeste 0 -- -- 54
2019-04-14 18:00:00 23.7 9 Noroeste 18 Sudoeste 0 -- -- 53
2019-04-14 17:00:00 23.5 11 Sudoeste 21 Oeste 0 -- -- 54
2019-04-14 16:00:00 23.6 17 Sudoeste 24 Sudoeste 0 -- -- 54
2019-04-14 15:00:00 22.6 6 Noroeste 17 Oeste 0 -- -- 56
2019-04-14 14:00:00 22.1 4 Nordeste 12 Nordeste 0 -- -- 59
2019-04-14 13:00:00 20.7 5 Oeste 13 Este 0 -- -- 66
2019-04-14 12:00:00 19 5 Este 12 Este 0 -- -- 72
2019-04-14 11:00:00 17.1 4 Sudeste 10 Sudeste 0 -- -- 77
2019-04-14 10:00:00 15.1 4 Sudeste 10 Sudeste 0 -- -- 85
2019-04-14 09:00:00 13.8 2 Sudeste 5 Sudeste 0 -- -- 92
2019-04-14 08:00:00 13.2 3 Sudeste 4 Sudeste 0 -- -- 93
2019-04-14 07:00:00 13.1 2 Sudoeste 5 Sudoeste 0 -- -- 94
2019-04-14 06:00:00 13.1 2 Sudoeste 5 Sudoeste 0 -- -- 94
2019-04-14 05:00:00 13 0 Calma 4 Sudoeste 0 -- -- 94
2019-04-14 04:00:00 12.7 0 Calma 4 Sudeste 0 -- -- 93
2019-04-14 03:00:00 13.3 0 Calma 8 Norte 0 -- -- 91
2019-04-14 02:00:00 14.2 5 Norte 12 Noroeste 0 -- -- 88
2019-04-14 01:00:00 14.9 7 Noroeste 16 Norte 0 -- -- 86
2019-04-14 00:00:00 16.2 12 Noroeste 21 Noroeste 0 -- -- 80
2019-04-13 23:00:00 17.1 10 Noroeste 15 Noroeste 0 -- -- 73
2019-04-13 22:00:00 17.5 10 Norte 20 Noroeste 0 -- -- 71
2019-04-13 21:00:00 19.1 16 Noroeste 26 Noroeste 0 -- -- 63
2019-04-13 20:00:00 21.9 17 Noroeste 24 Oeste 0 -- -- 44
2019-04-13 19:00:00 21.6 9 Noroeste 19 Oeste 0 -- -- 37
2019-04-13 18:00:00 21.7 12 Oeste 24 Oeste 0 -- -- 37
2019-04-13 17:00:00 22.2 14 Oeste 27 Oeste 0 -- -- 33
2019-04-13 16:00:00 21.7 10 Oeste 22 Oeste 0 -- -- 31
2019-04-13 15:00:00 21.1 11 Oeste 27 Oeste 0 -- -- 34
2019-04-13 14:00:00 19.8 11 Oeste 23 Oeste 0 -- -- 45
2019-04-13 13:00:00 18.2 8 Oeste 16 Oeste 0 -- -- 56
2019-04-13 12:00:00 17.7 7 Sudoeste 13 Oeste 0 -- -- 55
2019-04-13 11:00:00 14.7 8 Sudoeste 12 Sur 0 -- -- 70
2019-04-13 10:00:00 12 4 Sur 10 Sudeste 0 -- -- 79
2019-04-13 09:00:00 9.4 5 Sudeste 9 Sudeste 0 -- -- 88
2019-04-13 08:00:00 8.4 5 Sudeste 10 Sudeste 0 -- -- 90
2019-04-13 07:00:00 8.7 3 Sudeste 9 Sudeste 0 -- -- 90
2019-04-13 06:00:00 9.1 4 Sudeste 6 Sudeste 0 -- -- 89
2019-04-13 05:00:00 9.3 0 Calma 5 Sudeste 0 -- -- 88
2019-04-13 04:00:00 9.5 3 Sudeste 5 Sudeste 0 -- -- 86
2019-04-13 03:00:00 10.1 0 Calma 5 Nordeste 0 -- -- 85
2019-04-13 02:00:00 10.7 3 Norte 18 Norte 0 -- -- 81
2019-04-13 01:00:00 12.4 14 Norte 24 Norte 0 -- -- 75
2019-04-13 00:00:00 13.2 10 Noroeste 21 Oeste 0 -- -- 64
2019-04-12 23:00:00 15 4 Norte 10 Noroeste 0 -- -- 49
2019-04-12 22:00:00 15.6 4 Nordeste 7 Este 0 -- -- 45
2019-04-12 21:00:00 17.6 6 Este 16 Este 0 -- -- 40
2019-04-12 20:00:00 19.6 11 Nordeste 19 Nordeste 0 -- -- 33
2019-04-12 19:00:00 20.5 11 Nordeste 22 Norte 0 -- -- 32
2019-04-12 18:00:00 20.5 12 Nordeste 24 Nordeste 0 -- -- 32
2019-04-12 17:00:00 20.4 13 Nordeste 27 Norte 0 -- -- 33
2019-04-12 16:00:00 20.1 10 Nordeste 23 Nordeste 0 -- -- 34
2019-04-12 15:00:00 19.6 10 Norte 23 Norte 0 -- -- 36
2019-04-12 14:00:00 18.9 8 Norte 18 Noroeste 0 -- -- 40
2019-04-12 13:00:00 17.9 6 Norte 17 Norte 0 -- -- 43
2019-04-12 12:00:00 15.7 5 Noroeste 12 Noroeste 0 -- -- 57
2019-04-12 11:00:00 13.1 4 Oeste 8 Sudoeste 0 -- -- 71
2019-04-12 10:00:00 10.3 3 Noroeste 6 Noroeste 0 -- -- 84
2019-04-12 09:00:00 7 0 Calma 5 Este 0 -- -- 93
2019-04-12 08:00:00 6.1 0 Calma 4 Nordeste 0 -- -- 91
2019-04-12 07:00:00 6.8 3 Nordeste 11 Este 0 -- -- 89
2019-04-12 06:00:00 7 5 Nordeste 9 Nordeste 0 -- -- 89
2019-04-12 05:00:00 7.5 4 Nordeste 5 Nordeste 0 -- -- 89
2019-04-12 04:00:00 8.3 0 Calma 6 Norte 0 -- -- 85
2019-04-12 03:00:00 9.4 4 Nordeste 9 Norte 0 -- -- 82
2019-04-12 02:00:00 9.9 4 Nordeste 9 Norte 0 -- -- 81
2019-04-12 01:00:00 11.6 9 Norte 21 Norte 0 -- -- 75
2019-04-12 00:00:00 12.5 12 Norte 19 Norte 0 -- -- 68
2019-04-11 23:00:00 12.8 7 Norte 11 Norte 0 -- -- 62
2019-04-11 22:00:00 14.2 5 Norte 14 Norte 0 -- -- 56
2019-04-11 21:00:00 16.3 9 Norte 18 Norte 0 -- -- 46
2019-04-11 20:00:00 17.9 12 Noroeste 25 Noroeste 0 -- -- 42
2019-04-11 19:00:00 19.7 15 Norte 26 Nordeste 0 -- -- 37
2019-04-11 18:00:00 19.8 16 Norte 26 Noroeste 0 -- -- 35
2019-04-11 17:00:00 19.4 12 Norte 26 Nordeste 0 -- -- 41
2019-04-11 16:00:00 19.2 13 Norte 24 Norte 0 -- -- 45
2019-04-11 15:00:00 18.8 12 Norte 24 Nordeste 0 -- -- 44
2019-04-11 14:00:00 17.4 16 Norte 26 Noroeste 0 -- -- 49
2019-04-11 13:00:00 15.9 11 Norte 22 Nordeste 0 -- -- 61
2019-04-11 12:00:00 13.6 12 Norte 17 Norte 0 -- -- 71
2019-04-11 11:00:00 10.6 6 Noroeste 14 Noroeste 0 -- -- 87
2019-04-11 10:00:00 8 6 Norte 11 Norte 0 -- -- 96
2019-04-11 09:00:00 7.3 5 Norte 9 Nordeste 0 -- -- 97
2019-04-11 08:00:00 5.7 3 Nordeste 5 Este 0 -- -- 96
2019-04-11 07:00:00 5.8 0 Calma 6 Norte 0 -- -- 95
2019-04-11 06:00:00 6.1 2 Nordeste 6 Este 0 -- -- 94
2019-04-11 05:00:00 7 4 Nordeste 6 Norte 0 -- -- 93
2019-04-11 04:00:00 7.4 3 Sudoeste 14 Norte 0 -- -- 90
2019-04-11 03:00:00 8.4 9 Norte 14 Noroeste 0 -- -- 87
2019-04-11 02:00:00 9.2 6 Norte 21 Norte 0 -- -- 83
2019-04-11 01:00:00 10.2 13 Norte 25 Norte 0 -- -- 79
2019-04-11 00:00:00 11.2 12 Norte 31 Norte 0 -- -- 74
2019-04-10 23:00:00 12.1 15 Norte 26 Norte 0 -- -- 68
2019-04-10 22:00:00 12.9 10 Noroeste 19 Norte 0 -- -- 62
2019-04-10 21:00:00 15 13 Norte 36 Norte 0 -- -- 53
2019-04-10 20:00:00 16.3 18 Norte 38 Noroeste 0 -- -- 46
2019-04-10 19:00:00 17.9 22 Noroeste 36 Noroeste 0 -- -- 45
2019-04-10 18:00:00 18.5 20 Noroeste 34 Norte 0 -- -- 46
2019-04-10 17:00:00 18.5 19 Norte 42 Noroeste 0 -- -- 46
2019-04-10 16:00:00 17.3 29 Norte 43 Norte 0 -- -- 46
2019-04-10 15:00:00 16.4 22 Norte 36 Norte 0 -- -- 49
2019-04-10 14:00:00 16.1 21 Norte 36 Norte 0 -- -- 51
2019-04-10 13:00:00 14.6 19 Norte 36 Noroeste 0 -- -- 58
2019-04-10 12:00:00 13.7 23 Norte 34 Noroeste 0 -- -- 63
2019-04-10 11:00:00 11.5 17 Norte 26 Norte 0 -- -- 82
2019-04-10 10:00:00 9.5 10 Noroeste 15 Noroeste 0 -- -- 93
2019-04-10 09:00:00 7.6 5 Noroeste 10 Norte 0 -- -- 96
2019-04-10 08:00:00 6.3 0 Calma 4 Este 0 -- -- 96
2019-04-10 07:00:00 6.8 0 Calma 7 Noroeste 0 -- -- 94
2019-04-10 06:00:00 7.3 5 Oeste 9 Oeste 0 -- -- 95
2019-04-10 05:00:00 7.4 4 Noroeste 7 Noroeste 0 -- -- 94
2019-04-10 04:00:00 6.9 0 Calma 5 Oeste 0 -- -- 93
2019-04-10 03:00:00 7.7 3 Sudoeste 6 Sudoeste 0 -- -- 91
2019-04-10 02:00:00 8.7 2 Oeste 12 Noroeste 0 -- -- 87
2019-04-10 01:00:00 9.3 7 Noroeste 16 Noroeste 0 -- -- 84
2019-04-10 00:00:00 9.8 10 Noroeste 19 Noroeste 0 -- -- 82
2019-04-09 23:00:00 10.7 12 Noroeste 21 Noroeste 0 -- -- 77
2019-04-09 22:00:00 11.8 16 Noroeste 37 Noroeste 0 -- -- 73
2019-04-09 21:00:00 13.1 15 Noroeste 32 Norte 0 -- -- 69
2019-04-09 20:00:00 14.7 26 Norte 37 Norte 0 -- -- 62
2019-04-09 19:00:00 15.9 17 Noroeste 37 Oeste 0 -- -- 58
2019-04-09 18:00:00 14.9 14 Oeste 31 Oeste 0 -- -- 77
2019-04-09 17:00:00 12.9 18 Oeste 36 Noroeste 0.6 -- -- 80
2019-04-09 16:00:00 15.2 24 Oeste 36 Oeste 0 -- -- 67
2019-04-09 15:00:00 14.4 21 Oeste 39 Oeste 0 -- -- 72
2019-04-09 14:00:00 15.4 26 Oeste 43 Oeste 0 -- -- 64
2019-04-09 13:00:00 13.6 24 Noroeste 46 Oeste 0 -- -- 66
2019-04-09 12:00:00 13.5 29 Oeste 39 Oeste 0 -- -- 72
2019-04-09 11:00:00 11.6 16 Oeste 24 Oeste 0 -- -- 91
2019-04-09 10:00:00 9.9 11 Oeste 19 Sudoeste 0 -- -- 97
2019-04-09 09:00:00 9 9 Sudoeste 16 Sudoeste 0 -- -- 98
2019-04-09 08:00:00 8.2 5 Sudoeste 10 Sudoeste 0 -- -- 97
2019-04-09 07:00:00 8.6 7 Sudoeste 11 Sudoeste 0.2 -- -- 97
2019-04-09 06:00:00 8.4 3 Sudoeste 8 Sudoeste 0 -- -- 96
2019-04-09 05:00:00 8.2 5 Sudoeste 10 Sudoeste 0 -- -- 95
2019-04-09 04:00:00 8.4 7 Sudoeste 12 Oeste 0 -- -- 94
2019-04-09 03:00:00 8.4 6 Sudoeste 13 Sudoeste 0 -- -- 91
2019-04-09 02:00:00 8.7 4 Sudoeste 11 Sudoeste 0 -- -- 87
2019-04-09 01:00:00 9.4 3 Oeste 9 Oeste 0 -- -- 83
2019-04-09 00:00:00 9.9 5 Oeste 16 Oeste 0 -- -- 79
2019-04-08 23:00:00 10.9 12 Noroeste 24 Noroeste 0 -- -- 74
2019-04-08 22:00:00 12.1 19 Noroeste 28 Noroeste 0 -- -- 65
2019-04-08 21:00:00 13.3 15 Oeste 33 Noroeste 0 -- -- 67
2019-04-08 20:00:00 14.9 23 Noroeste 38 Noroeste 0 -- -- 62
2019-04-08 19:00:00 16.2 29 Noroeste 44 Noroeste 0 -- -- 51
2019-04-08 18:00:00 16.5 23 Noroeste 33 Oeste 0 -- -- 49
2019-04-08 17:00:00 16.9 21 Oeste 37 Oeste 0 -- -- 47
2019-04-08 16:00:00 17.6 19 Noroeste 33 Noroeste 0 -- -- 46
2019-04-08 15:00:00 16.7 22 Noroeste 31 Noroeste 0 -- -- 52
2019-04-08 14:00:00 15.8 19 Oeste 28 Oeste 0 -- -- 59
2019-04-08 13:00:00 14.4 17 Noroeste 28 Noroeste 0 -- -- 67
2019-04-08 12:00:00 13.5 12 Oeste 18 Oeste 0 -- -- 84
2019-04-08 11:00:00 12.5 13 Oeste 19 Sudoeste 0 -- -- 90
2019-04-08 10:00:00 12 10 Oeste 16 Sudoeste 0 -- -- 98
2019-04-08 09:00:00 11.6 3 Sur 17 Oeste 0 -- -- 98
2019-04-08 08:00:00 11.6 10 Sudoeste 19 Oeste 0 -- -- 97
2019-04-08 07:00:00 11.7 10 Sudoeste 26 Sudoeste 0 -- -- 97
2019-04-08 06:00:00 11.8 15 Sudoeste 27 Oeste 0.2 -- -- 97
2019-04-08 05:00:00 11.8 15 Sudoeste 26 Sudoeste 0.4 -- -- 97
2019-04-08 04:00:00 11.8 14 Sudoeste 25 Sudoeste 1 -- -- 97
2019-04-08 03:00:00 11.9 15 Sudoeste 22 Sudoeste 0.2 -- -- 97
2019-04-08 02:00:00 12 11 Sudoeste 16 Sudoeste 0 -- -- 97
2019-04-08 01:00:00 12.1 10 Sudoeste 19 Sudoeste 0 -- -- 96
2019-04-08 00:00:00 12.5 13 Sudoeste 23 Oeste 0 -- -- 95
2019-04-07 23:00:00 12.8 13 Sudoeste 23 Sudoeste 0.2 -- -- 95
2019-04-07 22:00:00 13.1 8 Sudoeste 17 Sudoeste 0 -- -- 92
2019-04-07 21:00:00 13.8 11 Sudoeste 19 Oeste 0 -- -- 90
2019-04-07 20:00:00 14.3 12 Oeste 22 Oeste 0 -- -- 91
2019-04-07 19:00:00 14.1 17 Oeste 27 Sudoeste 0 -- -- 95
2019-04-07 18:00:00 14 17 Sudoeste 25 Sudoeste 0 -- -- 93
2019-04-07 17:00:00 13.6 11 Sudoeste 27 Sudoeste 0 -- -- 91
2019-04-07 16:00:00 12.8 16 Sudoeste 26 Sudoeste 0 -- -- 88
2019-04-07 15:00:00 11.6 16 Sudoeste 23 Sudoeste 0 -- -- 92
2019-04-07 14:00:00 10.8 16 Sudoeste 23 Sudoeste 0.4 -- -- 94
2019-04-07 13:00:00 10.6 15 Sudoeste 29 Oeste 0 -- -- 92
2019-04-07 12:00:00 11.2 19 Oeste 31 Oeste 0 -- -- 84
2019-04-07 11:00:00 11.4 16 Sudoeste 20 Oeste 0 -- -- 84
2019-04-07 10:00:00 9.9 9 Sudoeste 13 Oeste 0 -- -- 93
2019-04-07 09:00:00 8.8 5 Sudoeste 8 Sudoeste 0 -- -- 95
2019-04-07 08:00:00 8.5 6 Oeste 12 Oeste 0 -- -- 94
2019-04-07 07:00:00 8.5 3 Sudoeste 12 Oeste 0 -- -- 95
2019-04-07 06:00:00 8.3 8 Sudoeste 14 Sudoeste 0 -- -- 95
2019-04-07 05:00:00 8.3 7 Sudoeste 16 Sudoeste 0 -- -- 94
2019-04-07 04:00:00 8.5 9 Sudoeste 13 Sudoeste 0 -- -- 94
2019-04-07 03:00:00 8.6 8 Sudoeste 16 Sudoeste 0 -- -- 92
2019-04-07 02:00:00 8.9 8 Sudoeste 14 Sudoeste 0 -- -- 91
2019-04-07 01:00:00 9.2 7 Sudoeste 30 Noroeste 0.2 -- -- 89
2019-04-07 00:00:00 9.2 11 Oeste 17 Oeste 0 -- -- 90
2019-04-06 23:00:00 9.1 12 Oeste 22 Oeste 0 -- -- 88
2019-04-06 22:00:00 8.9 9 Oeste 31 Oeste 0 -- -- 87
2019-04-06 21:00:00 10.3 22 Oeste 36 Oeste 0 -- -- 81
2019-04-06 20:00:00 12.3 24 Oeste 53 Noroeste 0 -- -- 70
2019-04-06 19:00:00 13.9 33 Oeste 51 Noroeste 0 -- -- 60
2019-04-06 18:00:00 12.7 15 Noroeste 27 Noroeste 1.8 -- -- 71
2019-04-06 17:00:00 12.8 11 Norte 46 Oeste 0 -- -- 62
2019-04-06 16:00:00 12.9 29 Oeste 46 Noroeste 0 -- -- 65
2019-04-06 15:00:00 11.8 35 Noroeste 62 Noroeste 0 -- -- 69
2019-04-06 14:00:00 13.5 28 Oeste 42 Oeste 0 -- -- 56
2019-04-06 13:00:00 11.7 24 Oeste 35 Noroeste 0 -- -- 70
2019-04-06 12:00:00 10 19 Oeste 38 Noroeste 0 -- -- 79
2019-04-06 11:00:00 9.2 18 Oeste 35 Oeste 0 -- -- 91
2019-04-06 10:00:00 7.9 16 Sudoeste 23 Sudoeste 0.4 -- -- 96
2019-04-06 09:00:00 7.2 12 Sudoeste 21 Sudoeste 0 -- -- 97
2019-04-06 08:00:00 6.7 11 Sudoeste 19 Sudoeste 0 -- -- 96
2019-04-06 07:00:00 6.7 10 Sudoeste 18 Sudoeste 0 -- -- 96
2019-04-06 06:00:00 7 8 Sudoeste 14 Oeste 0 -- -- 96
2019-04-06 05:00:00 6.4 7 Sudoeste 12 Sudoeste 0 -- -- 96
2019-04-06 04:00:00 6 7 Sudoeste 11 Sudoeste 0 -- -- 95
2019-04-06 03:00:00 6.3 4 Sudoeste 10 Sudoeste 0 -- -- 93
2019-04-06 02:00:00 6.8 8 Sudoeste 14 Oeste 0 -- -- 93
2019-04-06 01:00:00 7.3 4 Sudoeste 14 Oeste 0 -- -- 87
2019-04-06 00:00:00 7.6 8 Oeste 17 Noroeste 0 -- -- 85
2019-04-05 23:00:00 8.9 11 Oeste 26 Oeste 0 -- -- 83
2019-04-05 22:00:00 8.9 10 Oeste 26 Oeste 0 -- -- 84
2019-04-05 21:00:00 8.8 10 Oeste 25 Noroeste 0 -- -- 82
2019-04-05 20:00:00 9.6 15 Oeste 39 Oeste 0 -- -- 84
2019-04-05 19:00:00 8.8 17 Noroeste 58 Noroeste 0.8 -- -- 87
2019-04-05 18:00:00 10.5 15 Noroeste 42 Oeste 0 -- -- 76
2019-04-05 17:00:00 9.7 19 Noroeste 68 Oeste 0 -- -- 79
2019-04-05 16:00:00 11.9 19 Oeste 39 Oeste 0 -- -- 64
2019-04-05 15:00:00 11.6 24 Oeste 40 Oeste 0 -- -- 53
2019-04-05 14:00:00 10.9 18 Noroeste 29 Oeste 0 -- -- 62
2019-04-05 13:00:00 9 19 Oeste 31 Oeste 0 -- -- 78
2019-04-05 12:00:00 7.2 10 Oeste 17 Oeste 0 -- -- 84
2019-04-05 11:00:00 6.2 13 Noroeste 21 Noroeste 0 -- -- 90
2019-04-05 10:00:00 5.3 14 Norte 41 Noroeste 0.2 -- -- 92
2019-04-05 09:00:00 7 27 Noroeste 48 Noroeste 1.2 -- -- 92
2019-04-05 08:00:00 8.2 14 Sudoeste 30 Noroeste 1 -- -- 95
2019-04-05 07:00:00 8.2 8 Sudoeste 17 Sudoeste 0.2 -- -- 95
2019-04-05 06:00:00 8.3 9 Sudoeste 19 Sudoeste 0 -- -- 95
2019-04-05 05:00:00 8.5 10 Sudoeste 16 Sur 0.2 -- -- 96
2019-04-05 04:00:00 8.6 13 Sudoeste 29 Sudoeste 2.2 -- -- 95
2019-04-05 03:00:00 8.3 15 Sudoeste 24 Sudoeste 1.4 -- -- 94
2019-04-05 02:00:00 8.4 16 Sur 26 Sudoeste 0 -- -- 91
2019-04-05 01:00:00 8.1 11 Sur 16 Sur 0.2 -- -- 91
2019-04-05 00:00:00 8.3 9 Sudoeste 27 Oeste 0.2 -- -- 81
2019-04-04 23:00:00 10.7 15 Oeste 33 Oeste 0 -- -- 63
2019-04-04 22:00:00 11.3 19 Oeste 31 Oeste 0 -- -- 60
2019-04-04 21:00:00 12.9 22 Noroeste 34 Oeste 0 -- -- 53
2019-04-04 20:00:00 14.7 18 Oeste 35 Oeste 0 -- -- 43
2019-04-04 19:00:00 16 23 Oeste 35 Oeste 0 -- -- 36
2019-04-04 18:00:00 16.7 17 Oeste 32 Oeste 0 -- -- 33
2019-04-04 17:00:00 16.7 14 Noroeste 30 Oeste 0 -- -- 31
2019-04-04 16:00:00 16.2 19 Oeste 31 Oeste 0 -- -- 32
2019-04-04 15:00:00 15.5 15 Noroeste 26 Noroeste 0 -- -- 31
2019-04-04 14:00:00 14.6 6 Oeste 22 Norte 0 -- -- 39
2019-04-04 13:00:00 12.9 14 Nordeste 30 Nordeste 0 -- -- 42
2019-04-04 12:00:00 11.5 15 Nordeste 27 Nordeste 0 -- -- 48
2019-04-04 11:00:00 9.5 17 Nordeste 25 Nordeste 0 -- -- 54
2019-04-04 10:00:00 7.3 12 Nordeste 19 Nordeste 0 -- -- 70
2019-04-04 09:00:00 4 6 Nordeste 10 Nordeste 0 -- -- 89
2019-04-04 08:00:00 3.2 3 Norte 13 Norte 0 -- -- 89
2019-04-04 07:00:00 3.9 8 Norte 17 Norte 0 -- -- 86
2019-04-04 06:00:00 4.2 4 Norte 12 Nordeste 0 -- -- 86
2019-04-04 05:00:00 4.9 9 Nordeste 21 Norte 0 -- -- 85
2019-04-04 04:00:00 5.9 14 Nordeste 22 Nordeste 0 -- -- 81
2019-04-04 03:00:00 6.7 14 Norte 22 Nordeste 0 -- -- 76
2019-04-04 02:00:00 7.3 11 Norte 17 Norte 0 -- -- 71
2019-04-04 01:00:00 8.1 7 Norte 22 Norte 0 -- -- 70
2019-04-04 00:00:00 9.5 15 Norte 36 Norte 0 -- -- 66
2019-04-03 23:00:00 10.9 17 Norte 31 Norte 0 -- -- 59
2019-04-03 22:00:00 11.8 14 Norte 21 Norte 0 -- -- 55
2019-04-03 21:00:00 13.6 14 Noroeste 30 Noroeste 0 -- -- 49
2019-04-03 20:00:00 16.4 18 Noroeste 35 Noroeste 0 -- -- 41
2019-04-03 19:00:00 17.6 17 Noroeste 31 Noroeste 0 -- -- 40
2019-04-03 18:00:00 18.1 18 Noroeste 30 Norte 0 -- -- 41
2019-04-03 17:00:00 17.9 19 Noroeste 30 Norte 0 -- -- 43
2019-04-03 16:00:00 17.2 14 Norte 28 Norte 0 -- -- 46
2019-04-03 15:00:00 16.1 13 Norte 24 Noroeste 0 -- -- 51
2019-04-03 14:00:00 15.2 10 Noroeste 23 Noroeste 0 -- -- 55
2019-04-03 13:00:00 14.3 14 Norte 25 Norte 0 -- -- 58
2019-04-03 12:00:00 12.6 12 Norte 20 Norte 0 -- -- 65
2019-04-03 11:00:00 9.5 6 Oeste 12 Noroeste 0 -- -- 93
2019-04-03 10:00:00 7.7 0 Calma 5 Noroeste 0 -- -- 97
2019-04-03 09:00:00 6.9 5 Nordeste 9 Nordeste 0 -- -- 96
2019-04-03 08:00:00 6.1 4 Norte 7 Norte 0 -- -- 95
2019-04-03 07:00:00 6.8 0 Calma 3 Oeste 0 -- -- 94
2019-04-03 06:00:00 8 0 Calma 8 Norte 0 -- -- 92
2019-04-03 05:00:00 8.6 7 Norte 9 Norte 0 -- -- 91
2019-04-03 04:00:00 9.3 0 Calma 4 Norte 0 -- -- 90
2019-04-03 03:00:00 10.5 4 Norte 18 Norte 0 -- -- 87
2019-04-03 02:00:00 11.9 12 Norte 21 Norte 0 -- -- 84
2019-04-03 01:00:00 12.1 9 Norte 13 Norte 0 -- -- 81
2019-04-03 00:00:00 13.8 8 Norte 12 Norte 0 -- -- 73
2019-04-02 23:00:00 14.9 7 Norte 12 Noroeste 0 -- -- 71
2019-04-02 22:00:00 16.2 8 Noroeste 13 Oeste 0 -- -- 67
2019-04-02 21:00:00 17.2 7 Oeste 15 Noroeste 0 -- -- 62
2019-04-02 20:00:00 19.8 8 Oeste 16 Oeste 0 -- -- 48
2019-04-02 19:00:00 19.3 11 Noroeste 21 Noroeste 0 -- -- 51
2019-04-02 18:00:00 20.7 15 Noroeste 24 Noroeste 0 -- -- 49
2019-04-02 17:00:00 20 9 Oeste 18 Oeste 0 -- -- 52
2019-04-02 16:00:00 20.2 10 Oeste 17 Oeste 0 -- -- 58
2019-04-02 15:00:00 18.6 4 Sudoeste 13 Noroeste 0 -- -- 60
2019-04-02 14:00:00 16.9 5 Norte 18 Oeste 0 -- -- 69
2019-04-02 13:00:00 15.2 5 Oeste 11 Oeste 0 -- -- 86
2019-04-02 12:00:00 14 6 Oeste 10 Sudoeste 0 -- -- 89
2019-04-02 11:00:00 13 4 Sudeste 6 Sudeste 0 -- -- 95
2019-04-02 10:00:00 10 4 Sur 9 Sudeste 0 -- -- 98
2019-04-02 09:00:00 7.9 2 Sudeste 5 Sudeste 0 -- -- 98
2019-04-02 08:00:00 8 0 Calma 8 Sudeste 0 -- -- 98
2019-04-02 07:00:00 7.9 3 Sudeste 10 Este 0 -- -- 97
2019-04-02 06:00:00 8.5 3 Este 7 Sudeste 0 -- -- 97
2019-04-02 05:00:00 8.8 2 Sudeste 5 Sudeste 0 -- -- 97
2019-04-02 04:00:00 8.9 3 Este 6 Este 0 -- -- 97
2019-04-02 03:00:00 9.8 0 Calma 4 Sudoeste 0 -- -- 97
2019-04-02 02:00:00 10.4 0 Calma 4 Sudoeste 0 -- -- 96
2019-04-02 01:00:00 10.8 3 Sudoeste 5 Sur 0.2 -- -- 95
2019-04-02 00:00:00 11.3 0 Calma 5 Sur 0 -- -- 94
2019-04-01 23:00:00 11.9 4 Sudeste 10 Este 0 -- -- 95
2019-04-01 22:00:00 12 2 Sudeste 17 Nordeste 0 -- -- 94
2019-04-01 21:00:00 12.1 4 Sudeste 17 Sur 1 -- -- 92
2019-04-01 20:00:00 12.4 12 Sudoeste 20 Sudoeste 1.6 -- -- 91
2019-04-01 19:00:00 14.2 9 Este 23 Nordeste 0 -- -- 77
2019-04-01 18:00:00 15.2 14 Nordeste 39 Sudoeste 0.4 -- -- 77
2019-04-01 17:00:00 17.1 14 Sudoeste 26 Sudoeste 0 -- -- 58
2019-04-01 16:00:00 18.4 10 Noroeste 19 Oeste 0 -- -- 60
2019-04-01 15:00:00 19.6 3 Este 12 Oeste 0 -- -- 53
2019-04-01 14:00:00 18.6 6 Nordeste 17 Sur 0.2 -- -- 59
2019-04-01 13:00:00 16.9 4 Noroeste 8 Noroeste 0 -- -- 72
2019-04-01 12:00:00 15.4 0 Calma 12 Sudoeste 0 -- -- 77
2019-04-01 11:00:00 14.8 7 Sur 14 Sudeste 0 -- -- 83
2019-04-01 10:00:00 12.7 5 Sur 13 Sudeste 0 -- -- 93
2019-04-01 09:00:00 11.1 10 Sudeste 13 Sudeste 0 -- -- 96
2019-04-01 08:00:00 10.6 0 Calma 8 Este 0 -- -- 94
2019-04-01 07:00:00 11.3 6 Este 9 Este 0 -- -- 94
2019-04-01 06:00:00 11.8 4 Nordeste 6 Nordeste 0 -- -- 94
2019-04-01 05:00:00 11.7 8 Este 15 Este 0 -- -- 94
2019-04-01 04:00:00 11.6 10 Este 21 Este 0 -- -- 93
2019-04-01 03:00:00 11.8 14 Este 19 Este 0.6 -- -- 93
2019-04-01 02:00:00 12 7 Nordeste 13 Nordeste 0.4 -- -- 92
2019-04-01 01:00:00 12.3 4 Este 14 Sur 0.2 -- -- 89
2019-04-01 00:00:00 12.4 7 Sur 19 Sudeste 0 -- -- 89
2019-03-31 23:00:00 12.3 9 Sudeste 22 Este 0 -- -- 88
2019-03-31 22:00:00 12.3 13 Este 18 Este 0 -- -- 89
2019-03-31 21:00:00 13.4 9 Nordeste 20 Norte 0 -- -- 81
2019-03-31 20:00:00 14.4 13 Sudeste 29 Sudeste 0 -- -- 75
2019-03-31 19:00:00 14.1 22 Sudeste 34 Sudeste 0.2 -- -- 80
2019-03-31 18:00:00 20.6 13 Sur 29 Sudeste 0 -- -- 54
2019-03-31 17:00:00 20.9 13 Oeste 23 Oeste 0 -- -- 46
2019-03-31 16:00:00 20.4 9 Sudoeste 22 Oeste 0 -- -- 49
2019-03-31 15:00:00 19.5 12 Noroeste 19 Oeste 0 -- -- 57
2019-03-31 14:00:00 18.2 8 Noroeste 16 Oeste 0 -- -- 63
2019-03-31 13:00:00 17.1 7 Noroeste 18 Noroeste 0 -- -- 69
2019-03-31 12:00:00 15.5 6 Oeste 13 Oeste 0.2 -- -- 73
2019-03-31 11:00:00 13.6 4 Sudoeste 10 Oeste 0 -- -- 90
2019-03-31 10:00:00 12.4 0 Calma 14 Este 0 -- -- 91
2019-03-31 09:00:00 10.4 11 Este 15 Este 0 -- -- 94
2019-03-31 08:00:00 10.7 4 Sur 9 Sur 0 -- -- 91
2019-03-31 07:00:00 10.9 3 Sur 6 Sur 0 -- -- 92
2019-03-31 06:00:00 11 3 Sudeste 12 Sur 0 -- -- 89
2019-03-31 05:00:00 11.1 6 Sur 12 Sudeste 0 -- -- 90
2019-03-31 03:00:00 11.4 14 Este 17 Este 0 -- -- 91
2019-03-31 01:00:00 11.6 5 Sur 12 Sur 0 -- -- 88
2019-03-31 00:00:00 12.2 4 Sudeste 13 Sudeste 0 -- -- 87
2019-03-30 23:00:00 13.2 9 Sudeste 24 Sudeste 0 -- -- 85
2019-03-30 22:00:00 13.6 18 Sudeste 33 Sudeste 0 -- -- 79
2019-03-30 21:00:00 13.5 22 Sudeste 33 Sudeste 0 -- -- 84
2019-03-30 20:00:00 14.2 12 Sudeste 36 Sudeste 3.2 -- -- 79
2019-03-30 19:00:00 21.3 6 Nordeste 12 Nordeste 0 -- -- 42
2019-03-30 18:00:00 21.1 7 Norte 18 Nordeste 0 -- -- 41
2019-03-30 17:00:00 22.6 12 Este 20 Este 0 -- -- 36
2019-03-30 16:00:00 22.9 11 Este 25 Este 0 -- -- 38
2019-03-30 15:00:00 21.1 11 Este 27 Este 0 -- -- 45
2019-03-30 14:00:00 21 10 Este 30 Este 0 -- -- 46
2019-03-30 13:00:00 19.9 12 Este 33 Sudeste 0 -- -- 45
2019-03-30 12:00:00 19 13 Sudeste 23 Sudeste 0 -- -- 49
2019-03-30 11:00:00 17.7 8 Este 21 Nordeste 0 -- -- 54
2019-03-30 10:00:00 15.6 10 Este 19 Sudeste 0 -- -- 61
2019-03-30 09:00:00 12.6 8 Este 15 Este 0 -- -- 77
2019-03-30 08:00:00 11.3 6 Nordeste 12 Nordeste 0 -- -- 86
2019-03-30 07:00:00 11 4 Este 11 Este 0 -- -- 85
2019-03-30 06:00:00 11.1 5 Nordeste 9 Este 0 -- -- 85
2019-03-30 05:00:00 11.5 0 Calma 5 Sur 0 -- -- 84
2019-03-30 04:00:00 11.2 3 Sur 5 Sudoeste 0 -- -- 83
2019-03-30 03:00:00 12.2 0 Calma 5 Oeste 0 -- -- 79
2019-03-30 02:00:00 12.5 5 Sudoeste 8 Sudoeste 0 -- -- 78
2019-03-30 01:00:00 12.7 3 Sudoeste 8 Sur 0 -- -- 70
2019-03-30 00:00:00 13 4 Sudoeste 16 Oeste 0 -- -- 64
2019-03-29 23:00:00 13.6 5 Oeste 19 Oeste 0 -- -- 55
2019-03-29 22:00:00 14.7 11 Norte 13 Norte 0 -- -- 40
2019-03-29 21:00:00 16.5 10 Norte 13 Norte 0 -- -- 37
2019-03-29 20:00:00 18.4 8 Norte 18 Noroeste 0 -- -- 33
2019-03-29 19:00:00 21 8 Oeste 14 Noroeste 0 -- -- 31
2019-03-29 18:00:00 22 8 Oeste 20 Oeste 0 -- -- 27
2019-03-29 17:00:00 22.5 4 Noroeste 15 Oeste 0 -- -- 25
2019-03-29 16:00:00 21.5 9 Este 19 Este 0 -- -- 27
2019-03-29 15:00:00 21.3 7 Sur 19 Sudeste 0 -- -- 26
2019-03-29 14:00:00 20.4 7 Sudoeste 21 Sudeste 0 -- -- 29
2019-03-29 13:00:00 19.3 7 Este 18 Sudeste 0 -- -- 34
2019-03-29 12:00:00 17.9 7 Sudeste 19 Sudeste 0 -- -- 36
2019-03-29 11:00:00 16.2 8 Sudeste 19 Este 0 -- -- 39
2019-03-29 10:00:00 13.6 4 Sur 10 Oeste 0 -- -- 47
2019-03-29 09:00:00 12.2 4 Sudeste 15 Este 0 -- -- 49
2019-03-29 08:00:00 9.4 10 Este 19 Este 0 -- -- 55
2019-03-29 07:00:00 9.7 10 Este 17 Sudeste 0 -- -- 51
2019-03-29 06:00:00 8.9 5 Sudeste 17 Sudeste 0 -- -- 53
2019-03-29 05:00:00 10 11 Sudeste 19 Sudeste 0 -- -- 49
2019-03-29 04:00:00 10.8 13 Sudeste 23 Sudeste 0 -- -- 47
2019-03-29 03:00:00 9.4 19 Este 24 Sudeste 0 -- -- 51
2019-03-29 02:00:00 10 6 Sudeste 12 Sudeste 0 -- -- 51
2019-03-29 01:00:00 10.8 4 Sudeste 6 Sudeste 0 -- -- 49
2019-03-29 00:00:00 11.6 7 Este 13 Sudeste 0 -- -- 49
2019-03-28 23:00:00 12.6 10 Este 14 Sudeste 0 -- -- 47
2019-03-28 22:00:00 14.2 7 Sudeste 13 Sudeste 0 -- -- 42
2019-03-28 21:00:00 15.4 8 Sudeste 13 Sudeste 0 -- -- 38
2019-03-28 20:00:00 17.3 8 Sudeste 25 Sudeste 0 -- -- 32
2019-03-28 19:00:00 19.7 16 Sudeste 29 Sudeste 0 -- -- 27
2019-03-28 18:00:00 20.9 19 Sudeste 33 Sur 0 -- -- 25
2019-03-28 17:00:00 21.3 19 Este 32 Sudeste 0 -- -- 20
2019-03-28 16:00:00 21.3 22 Sudeste 38 Este 0 -- -- 20
2019-03-28 15:00:00 21.2 24 Sudeste 39 Sudeste 0 -- -- 24
2019-03-28 14:00:00 20.1 19 Este 34 Este 0 -- -- 32
2019-03-28 13:00:00 19.4 12 Este 32 Este 0 -- -- 39
2019-03-28 12:00:00 17.8 19 Este 35 Este 0 -- -- 42
2019-03-28 11:00:00 16.8 18 Sudeste 26 Sudeste 0 -- -- 46
2019-03-28 10:00:00 14.5 6 Este 15 Este 0 -- -- 55
2019-03-28 09:00:00 11 11 Este 18 Este 0 -- -- 61
2019-03-28 08:00:00 7.8 13 Este 19 Este 0 -- -- 80
2019-03-28 07:00:00 7.7 14 Este 23 Este 0 -- -- 80
2019-03-28 06:00:00 7.6 13 Este 17 Nordeste 0 -- -- 83
2019-03-28 05:00:00 8.3 12 Este 14 Nordeste 0 -- -- 81
2019-03-28 04:00:00 6.8 2 Este 7 Este 0 -- -- 82
2019-03-28 03:00:00 8.2 0 Calma 4 Oeste 0 -- -- 80
2019-03-28 02:00:00 9.1 0 Calma 5 Oeste 0 -- -- 74
2019-03-28 01:00:00 10.8 3 Nordeste 16 Sudoeste 0 -- -- 68
2019-03-28 00:00:00 12.1 8 Oeste 18 Sudoeste 0 -- -- 62
2019-03-27 23:00:00 12.6 9 Sudoeste 17 Sur 0 -- -- 48
2019-03-27 22:00:00 15.4 8 Este 17 Nordeste 0 -- -- 31
2019-03-27 21:00:00 16.7 11 Nordeste 21 Nordeste 0 -- -- 28
2019-03-27 20:00:00 18.3 11 Este 22 Este 0 -- -- 26
2019-03-27 19:00:00 21 15 Este 40 Este 0 -- -- 21
2019-03-27 18:00:00 21.7 21 Este 38 Nordeste 0 -- -- 20
2019-03-27 17:00:00 22.1 21 Este 40 Este 0 -- -- 22
2019-03-27 16:00:00 22 21 Este 39 Este 0 -- -- 22
2019-03-27 15:00:00 21.7 23 Este 41 Este 0 -- -- 22
2019-03-27 14:00:00 20.8 15 Nordeste 31 Este 0 -- -- 26
2019-03-27 13:00:00 19.8 17 Este 30 Nordeste 0 -- -- 35
2019-03-27 12:00:00 18.8 17 Este 27 Este 0 -- -- 37
2019-03-27 11:00:00 17.9 13 Este 26 Este 0 -- -- 50
2019-03-27 10:00:00 16 14 Este 29 Nordeste 0 -- -- 61
2019-03-27 09:00:00 13.3 18 Este 28 Este 0 -- -- 69
2019-03-27 08:00:00 10.6 12 Este 18 Este 0 -- -- 78
2019-03-27 07:00:00 10.8 12 Este 17 Este 0 -- -- 75
2019-03-27 06:00:00 10.5 10 Este 17 Este 0 -- -- 73
2019-03-27 05:00:00 10.8 14 Este 18 Este 0 -- -- 73
2019-03-27 04:00:00 11.2 13 Este 16 Este 0 -- -- 79
2019-03-27 03:00:00 11 3 Este 8 Este 0 -- -- 78
2019-03-27 02:00:00 12.4 5 Sudeste 7 Sudoeste 0 -- -- 73
2019-03-27 01:00:00 13.3 0 Calma 6 Sur 0 -- -- 71
2019-03-27 00:00:00 13.8 0 Calma 2 Sudoeste 0 -- -- 70
2019-03-26 23:00:00 14.8 2 Sudeste 9 Este 0 -- -- 66
2019-03-26 22:00:00 15.5 0 Calma 10 Sudoeste 0 -- -- 64
2019-03-26 21:00:00 17.8 8 Sudoeste 16 Sudoeste 0 -- -- 55
2019-03-26 20:00:00 20.2 14 Sudoeste 25 Sudoeste 0 -- -- 47
2019-03-26 19:00:00 23.5 13 Sur 18 Sur 0 -- -- 33
2019-03-26 18:00:00 25 15 Sudoeste 27 Sudeste 0 -- -- 29
2019-03-26 17:00:00 25.1 13 Este 34 Este 0 -- -- 28
2019-03-26 16:00:00 25 15 Este 34 Este 0 -- -- 27
2019-03-26 15:00:00 24.3 20 Este 45 Nordeste 0 -- -- 27
2019-03-26 14:00:00 23.5 21 Este 34 Este 0 -- -- 29
2019-03-26 13:00:00 21.9 26 Nordeste 37 Este 0 -- -- 29
2019-03-26 12:00:00 20 17 Este 30 Nordeste 0 -- -- 33
2019-03-26 11:00:00 18.8 17 Nordeste 27 Este 0 -- -- 33
2019-03-26 10:00:00 16.6 13 Nordeste 24 Nordeste 0 -- -- 39
2019-03-26 09:00:00 14.2 14 Nordeste 26 Nordeste 0 -- -- 40
2019-03-26 08:00:00 12.3 19 Este 27 Este 0 -- -- 43
2019-03-26 07:00:00 12.6 18 Nordeste 28 Este 0 -- -- 41
2019-03-26 06:00:00 13.2 17 Este 26 Nordeste 0 -- -- 44
2019-03-26 05:00:00 13.4 18 Este 24 Este 0 -- -- 38
2019-03-26 04:00:00 13.6 8 Este 17 Este 0 -- -- 37
2019-03-26 03:00:00 12.6 11 Este 21 Nordeste 0 -- -- 41
2019-03-26 02:00:00 14.1 14 Nordeste 22 Nordeste 0 -- -- 37
2019-03-26 01:00:00 14.5 15 Nordeste 20 Este 0 -- -- 36
2019-03-26 00:00:00 14.9 11 Este 19 Este 0 -- -- 35
2019-03-25 23:00:00 16.1 12 Nordeste 19 Este 0 -- -- 34
2019-03-25 22:00:00 18.2 12 Este 22 Nordeste 0 -- -- 29
2019-03-25 21:00:00 19.1 12 Nordeste 21 Nordeste 0 -- -- 28
2019-03-25 20:00:00 20.3 11 Nordeste 27 Este 0 -- -- 27
2019-03-25 19:00:00 22.6 12 Este 34 Este 0 -- -- 25
2019-03-25 18:00:00 23.5 22 Este 41 Este 0 -- -- 23
2019-03-25 17:00:00 23.7 24 Este 41 Este 0 -- -- 25
2019-03-25 16:00:00 23.5 24 Este 40 Este 0 -- -- 30
2019-03-25 15:00:00 23.4 18 Este 43 Este 0 -- -- 28
2019-03-25 14:00:00 22.3 21 Este 36 Este 0 -- -- 33
2019-03-25 13:00:00 21.8 18 Este 40 Este 0 -- -- 37
2019-03-25 12:00:00 20.9 18 Este 36 Sudeste 0 -- -- 37
2019-03-25 11:00:00 18.8 12 Este 20 Este 0 -- -- 53
2019-03-25 10:00:00 15.2 4 Este 10 Sudeste 0 -- -- 68
2019-03-25 09:00:00 12.1 4 Sudeste 20 Este 0 -- -- 82
2019-03-25 08:00:00 10 13 Este 18 Este 0 -- -- 83
2019-03-25 07:00:00 9.3 4 Este 7 Este 0 -- -- 83
2019-03-25 06:00:00 9.1 0 Calma 10 Sudeste 0 -- -- 84
2019-03-25 05:00:00 9.3 2 Sur 6 Este 0 -- -- 84
2019-03-25 04:00:00 9.5 2 Este 8 Este 0 -- -- 85
2019-03-25 03:00:00 10.8 4 Nordeste 5 Nordeste 0 -- -- 80
2019-03-25 02:00:00 11.3 2 Este 6 Sur 0 -- -- 75
2019-03-25 01:00:00 11.8 5 Sur 13 Sudeste 0 -- -- 72
2019-03-25 00:00:00 12.5 10 Sudeste 14 Sudeste 0 -- -- 73
2019-03-24 23:00:00 12.7 3 Sudeste 14 Sudeste 0 -- -- 72
2019-03-24 22:00:00 12.7 2 Este 7 Sudeste 0 -- -- 80
2019-03-24 21:00:00 13.7 3 Nordeste 81 Este 2.2 -- -- 79
2019-03-24 20:00:00 16.9 10 Nordeste 17 Nordeste 0 -- -- 55
2019-03-24 19:00:00 18 8 Norte 18 Noroeste 0 -- -- 54
2019-03-24 18:00:00 19.8 10 Norte 21 Sudeste 0 -- -- 50
2019-03-24 17:00:00 19.7 3 Este 18 Este 0 -- -- 44
2019-03-24 16:00:00 19.4 11 Sudeste 28 Sudeste 0 -- -- 50
2019-03-24 15:00:00 19.7 15 Sudeste 32 Este 0.2 -- -- 48
2019-03-24 14:00:00 20.8 17 Este 29 Este 0 -- -- 40
2019-03-24 13:00:00 19.6 17 Sudeste 38 Sudeste 0 -- -- 42
2019-03-24 12:00:00 18.8 21 Sudeste 35 Sudeste 0 -- -- 42
2019-03-24 11:00:00 17.3 13 Este 26 Nordeste 0 -- -- 51
2019-03-24 10:00:00 14.6 16 Este 24 Este 0 -- -- 59
2019-03-24 09:00:00 11.2 12 Nordeste 18 Nordeste 0 -- -- 69
2019-03-24 08:00:00 9.5 11 Este 17 Nordeste 0 -- -- 73
2019-03-24 07:00:00 9.2 12 Nordeste 18 Nordeste 0 -- -- 73
2019-03-24 06:00:00 9.9 10 Nordeste 17 Nordeste 0 -- -- 70
2019-03-24 05:00:00 10.7 8 Este 19 Este 0 -- -- 66
2019-03-24 04:00:00 10.7 8 Este 17 Este 0 -- -- 67
2019-03-24 03:00:00 11.6 10 Este 21 Nordeste 0 -- -- 65
2019-03-24 02:00:00 11.6 9 Este 13 Este 0 -- -- 65
2019-03-24 01:00:00 13.1 9 Sudeste 17 Sudeste 0 -- -- 60
2019-03-24 00:00:00 13.9 12 Sudeste 22 Sudeste 0 -- -- 57
2019-03-23 23:00:00 16 11 Este 22 Sudeste 0 -- -- 52
2019-03-23 22:00:00 16.3 9 Este 12 Este 0 -- -- 48
2019-03-23 21:00:00 17.8 5 Sudeste 9 Sur 0 -- -- 43
2019-03-23 20:00:00 18.8 0 Calma 13 Sudeste 0 -- -- 40
2019-03-23 19:00:00 20.4 11 Sudeste 23 Sudeste 0 -- -- 34
2019-03-23 18:00:00 21.2 11 Sudeste 29 Sudeste 0 -- -- 32
2019-03-23 17:00:00 22.2 14 Sudeste 42 Sudeste 0 -- -- 31
2019-03-23 16:00:00 22.1 21 Sudeste 41 Sudeste 0 -- -- 31
2019-03-23 15:00:00 22.5 22 Este 46 Sudeste 0 -- -- 31
2019-03-23 14:00:00 21.6 27 Sudeste 44 Este 0 -- -- 29
2019-03-23 13:00:00 20.8 29 Sudeste 52 Este 0 -- -- 31
2019-03-23 12:00:00 19.7 30 Este 48 Este 0 -- -- 35
2019-03-23 11:00:00 18.5 15 Este 39 Sudeste 0 -- -- 42
2019-03-23 10:00:00 16.6 12 Sudeste 22 Sudeste 0 -- -- 47
2019-03-23 09:00:00 13.1 9 Sudeste 17 Sudeste 0 -- -- 56
2019-03-23 08:00:00 9.7 8 Este 17 Este 0 -- -- 62
2019-03-23 07:00:00 9.3 9 Este 18 Este 0 -- -- 61
2019-03-23 06:00:00 9.1 10 Este 14 Este 0 -- -- 58
2019-03-23 05:00:00 8.1 2 Sur 10 Este 0 -- -- 61
2019-03-23 04:00:00 7.4 3 Este 6 Nordeste 0 -- -- 64
2019-03-23 03:00:00 9.1 0 Calma 10 Este 0 -- -- 57
2019-03-23 02:00:00 11.1 6 Este 14 Este 0 -- -- 49
2019-03-23 01:00:00 12.3 12 Este 14 Este 0 -- -- 45
2019-03-23 00:00:00 11.9 12 Este 15 Este 0 -- -- 47
2019-03-22 23:00:00 13.8 12 Este 17 Este 0 -- -- 41
2019-03-22 22:00:00 13.8 9 Nordeste 14 Este 0 -- -- 41
2019-03-22 21:00:00 14.4 9 Nordeste 13 Nordeste 0 -- -- 39
2019-03-22 20:00:00 16.2 9 Nordeste 22 Este 0 -- -- 35
2019-03-22 19:00:00 19.1 14 Este 28 Este 0 -- -- 29
2019-03-22 18:00:00 20.1 13 Este 28 Sudeste 0 -- -- 28
2019-03-22 17:00:00 20.3 17 Este 32 Este 0 -- -- 25
2019-03-22 16:00:00 20.4 17 Sudeste 34 Este 0 -- -- 27
2019-03-22 15:00:00 19.4 16 Este 30 Nordeste 0 -- -- 30
2019-03-22 14:00:00 18.8 16 Sudeste 32 Este 0 -- -- 34
2019-03-22 13:00:00 18.1 22 Este 35 Este 0 -- -- 35
2019-03-22 12:00:00 17.5 7 Sudeste 19 Sudeste 0 -- -- 40
2019-03-22 11:00:00 15.1 6 Sudeste 11 Sudeste 0 -- -- 49
2019-03-22 10:00:00 12.4 5 Sudoeste 14 Este 0 -- -- 59
2019-03-22 09:00:00 9.7 5 Este 10 Este 0 -- -- 57
2019-03-22 08:00:00 5.9 5 Este 11 Este 0 -- -- 61
2019-03-22 07:00:00 5.5 5 Sudeste 12 Sudeste 0 -- -- 61
2019-03-22 06:00:00 5.7 3 Sudeste 10 Sudeste 0 -- -- 61
2019-03-22 05:00:00 5.8 0 Calma 6 Este 0 -- -- 60
2019-03-22 04:00:00 6.9 0 Calma 6 Este 0 -- -- 57
2019-03-22 03:00:00 8.5 2 Este 8 Oeste 0 -- -- 48
2019-03-22 02:00:00 8.3 5 Oeste 9 Sudeste 0 -- -- 50
2019-03-22 01:00:00 9.5 5 Sudeste 10 Sudeste 0 -- -- 46
2019-03-22 00:00:00 9.8 7 Sudeste 15 Este 0 -- -- 47
2019-03-21 23:00:00 12.2 10 Este 22 Nordeste 0 -- -- 39
2019-03-21 22:00:00 12.6 14 Este 20 Nordeste 0 -- -- 38
2019-03-21 21:00:00 13.8 13 Este 20 Este 0 -- -- 35
2019-03-21 20:00:00 15.1 10 Nordeste 17 Nordeste 0 -- -- 33
2019-03-21 19:00:00 17.8 12 Nordeste 20 Nordeste 0 -- -- 28
2019-03-21 18:00:00 19.1 8 Este 29 Nordeste 0 -- -- 26
2019-03-21 17:00:00 19 16 Este 26 Este 0 -- -- 28
2019-03-21 16:00:00 18 7 Nordeste 21 Nordeste 0 -- -- 35
2019-03-21 15:00:00 17.8 14 Sudeste 30 Sudeste 0 -- -- 36
2019-03-21 14:00:00 18 14 Este 24 Este 0 -- -- 38
2019-03-21 13:00:00 17.4 9 Sudeste 23 Sudeste 0 -- -- 42
2019-03-21 12:00:00 16 6 Nordeste 15 Sudeste 0 -- -- 55
2019-03-21 11:00:00 14.5 6 Norte 10 Este 0 -- -- 63
2019-03-21 10:00:00 12.9 6 Este 15 Este 0 -- -- 67
2019-03-21 09:00:00 8.7 2 Este 7 Sur 0 -- -- 84
2019-03-21 08:00:00 4.8 2 Este 5 Este 0 -- -- 85
2019-03-21 07:00:00 5.7 0 Calma 3 Este 0 -- -- 78
2019-03-21 06:00:00 5.8 3 Este 6 Este 0 -- -- 76
2019-03-21 05:00:00 7.3 0 Calma 4 Sur 0 -- -- 76
2019-03-21 04:00:00 8 0 Calma 7 Este 0 -- -- 67
2019-03-21 03:00:00 8.7 3 Este 14 Este 0 -- -- 65
2019-03-21 02:00:00 9.4 4 Sudeste 11 Sudeste 0 -- -- 60
2019-03-21 01:00:00 8.4 8 Sur 18 Sudoeste 0 -- -- 58
2019-03-21 00:00:00 10.4 9 Este 15 Este 0 -- -- 50
2019-03-20 23:00:00 11.3 12 Nordeste 19 Nordeste 0 -- -- 46
2019-03-20 22:00:00 12.1 12 Nordeste 19 Nordeste 0 -- -- 42
2019-03-20 21:00:00 12.3 12 Nordeste 17 Nordeste 0 -- -- 43
2019-03-20 20:00:00 13.9 10 Nordeste 21 Nordeste 0 -- -- 39
2019-03-20 19:00:00 16.5 13 Nordeste 30 Este 0 -- -- 31
2019-03-20 18:00:00 17.5 12 Este 32 Este 0 -- -- 32
2019-03-20 17:00:00 17.6 18 Nordeste 32 Nordeste 0 -- -- 32
2019-03-20 16:00:00 17.7 19 Nordeste 37 Este 0 -- -- 32
2019-03-20 15:00:00 17.4 19 Este 33 Este 0 -- -- 32
2019-03-20 14:00:00 16.7 18 Este 33 Nordeste 0 -- -- 36
2019-03-20 13:00:00 16.1 15 Este 33 Nordeste 0 -- -- 38
2019-03-20 12:00:00 15.2 17 Nordeste 32 Este 0 -- -- 39
2019-03-20 11:00:00 14.3 16 Este 33 Sudeste 0 -- -- 42
2019-03-20 10:00:00 12.7 22 Este 33 Este 0 -- -- 44
2019-03-20 09:00:00 10.9 14 Este 26 Este 0 -- -- 51
2019-03-20 08:00:00 8.4 13 Este 24 Este 0 -- -- 59
2019-03-20 07:00:00 9.1 11 Este 17 Este 0 -- -- 57
2019-03-20 06:00:00 8.4 4 Este 14 Este 0 -- -- 62
2019-03-20 05:00:00 9.7 12 Este 19 Este 0 -- -- 56
2019-03-20 04:00:00 9.6 12 Nordeste 17 Este 0 -- -- 57
2019-03-20 03:00:00 9.6 12 Este 19 Este 0 -- -- 58
2019-03-20 02:00:00 11 13 Nordeste 19 Nordeste 0 -- -- 54
2019-03-20 01:00:00 11.5 12 Este 14 Nordeste 0 -- -- 53
2019-03-20 00:00:00 12.2 9 Este 19 Este 0 -- -- 53
2019-03-19 23:00:00 13.4 12 Este 20 Nordeste 0 -- -- 49
2019-03-19 22:00:00 13.4 12 Este 18 Nordeste 0 -- -- 49
2019-03-19 21:00:00 13.9 11 Nordeste 16 Nordeste 0 -- -- 51
2019-03-19 20:00:00 15 9 Nordeste 20 Nordeste 0 -- -- 48
2019-03-19 19:00:00 17.9 13 Nordeste 27 Nordeste 0 -- -- 37
2019-03-19 18:00:00 18.7 17 Nordeste 35 Este 0 -- -- 35
2019-03-19 17:00:00 19.3 20 Nordeste 35 Nordeste 0 -- -- 34
2019-03-19 16:00:00 19.7 20 Nordeste 36 Este 0 -- -- 33
2019-03-19 15:00:00 19.9 14 Nordeste 32 Este 0 -- -- 31
2019-03-19 14:00:00 19.4 15 Este 29 Norte 0 -- -- 31
2019-03-19 13:00:00 18.8 19 Nordeste 27 Nordeste 0 -- -- 35
2019-03-19 12:00:00 17.9 11 Nordeste 19 Nordeste 0 -- -- 38
2019-03-19 11:00:00 16.4 5 Este 18 Nordeste 0 -- -- 42
2019-03-19 10:00:00 13.6 13 Este 22 Este 0 -- -- 50
2019-03-19 09:00:00 10.3 14 Nordeste 23 Nordeste 0 -- -- 57
2019-03-19 08:00:00 7.1 9 Este 26 Este 0 -- -- 66
2019-03-19 07:00:00 7.5 17 Este 24 Nordeste 0 -- -- 63
2019-03-19 06:00:00 8 9 Este 22 Este 0 -- -- 62
2019-03-19 05:00:00 7.8 14 Este 19 Este 0 -- -- 63
2019-03-19 04:00:00 7.4 12 Este 17 Este 0 -- -- 64
2019-03-19 03:00:00 7.9 6 Nordeste 12 Nordeste 0 -- -- 62
2019-03-19 02:00:00 8.9 7 Nordeste 13 Nordeste 0 -- -- 58
2019-03-19 01:00:00 10 5 Este 15 Nordeste 0 -- -- 54
2019-03-19 00:00:00 11.3 11 Nordeste 23 Este 0 -- -- 49